地図

経路データ

SID SEASON NUMBER BASIN SUBBASIN NAME ISO_TIME NATURE LAT LON WMO_WIND WMO_PRES WMO_AGENCY TRACK_TYPE DIST2LAND LANDFALL IFLAG USA_AGENCY USA_ATCF_ID USA_LAT USA_LON USA_RECORD USA_STATUS USA_WIND USA_PRES USA_SSHS USA_R34_NE USA_R34_SE USA_R34_SW USA_R34_NW USA_R50_NE USA_R50_SE USA_R50_SW USA_R50_NW USA_R64_NE USA_R64_SE USA_R64_SW USA_R64_NW USA_POCI USA_ROCI USA_RMW USA_EYE TOKYO_LAT TOKYO_LON TOKYO_GRADE TOKYO_WIND TOKYO_PRES TOKYO_R50_DIR TOKYO_R50_LONG TOKYO_R50_SHORT TOKYO_R30_DIR TOKYO_R30_LONG TOKYO_R30_SHORT TOKYO_LAND CMA_LAT CMA_LON CMA_CAT CMA_WIND CMA_PRES HKO_LAT HKO_LON HKO_CAT HKO_WIND HKO_PRES NEWDELHI_LAT NEWDELHI_LON NEWDELHI_GRADE NEWDELHI_WIND NEWDELHI_PRES NEWDELHI_CI NEWDELHI_DP NEWDELHI_POCI REUNION_LAT REUNION_LON REUNION_TYPE REUNION_WIND REUNION_PRES REUNION_TNUM REUNION_CI REUNION_RMW REUNION_R34_NE REUNION_R34_SE REUNION_R34_SW REUNION_R34_NW REUNION_R50_NE REUNION_R50_SE REUNION_R50_SW REUNION_R50_NW REUNION_R64_NE REUNION_R64_SE REUNION_R64_SW REUNION_R64_NW BOM_LAT BOM_LON BOM_TYPE BOM_WIND BOM_PRES BOM_TNUM BOM_CI BOM_RMW BOM_R34_NE BOM_R34_SE BOM_R34_SW BOM_R34_NW BOM_R50_NE BOM_R50_SE BOM_R50_SW BOM_R50_NW BOM_R64_NE BOM_R64_SE BOM_R64_SW BOM_R64_NW BOM_ROCI BOM_POCI BOM_EYE BOM_POS_METHOD BOM_PRES_METHOD NADI_LAT NADI_LON NADI_CAT NADI_WIND NADI_PRES WELLINGTON_LAT WELLINGTON_LON WELLINGTON_WIND WELLINGTON_PRES DS824_LAT DS824_LON DS824_STAGE DS824_WIND DS824_PRES TD9636_LAT TD9636_LON TD9636_STAGE TD9636_WIND TD9636_PRES TD9635_LAT TD9635_LON TD9635_WIND TD9635_PRES TD9635_ROCI NEUMANN_LAT NEUMANN_LON NEUMANN_CLASS NEUMANN_WIND NEUMANN_PRES MLC_LAT MLC_LON MLC_CLASS MLC_WIND MLC_PRES USA_GUST BOM_GUST BOM_GUST_PER REUNION_GUST REUNION_GUST_PER USA_SEAHGT USA_SEARAD_NE USA_SEARAD_SE USA_SEARAD_SW USA_SEARAD_NW STORM_SPEED STORM_DIR
1936335N14139 1936 66 WP MM NOT_NAMED 1936-11-30 10:00:00 NR 13.6000 138.600 main 1421 1400 __________O___ -1 13.6000 138.600 7 5 268
1936335N14139 1936 66 WP MM NOT_NAMED 1936-11-30 12:00:00 NR 13.5944 138.437 main 1400 1378 __________P___ -1 13.5944 138.437 7 5 268
1936335N14139 1936 66 WP MM NOT_NAMED 1936-11-30 15:00:00 NR 13.5881 138.173 main 1378 1347 __________P___ -1 13.5881 138.173 7 6 269
1936335N14139 1936 66 WP MM NOT_NAMED 1936-11-30 18:00:00 NR 13.5873 137.857 main 1347 1304 __________P___ -1 13.5873 137.857 7 7 271
1936335N14139 1936 66 WP MM NOT_NAMED 1936-11-30 21:00:00 NR 13.5950 137.457 main 1304 1283 __________P___ -1 13.5950 137.457 7 8 271
1936335N14139 1936 66 WP MM NOT_NAMED 1936-11-30 22:00:00 NR 13.6000 137.300 main 1283 1241 __________O___ -1 13.6000 137.300 7 10 272
1936335N14139 1936 66 WP MM NOT_NAMED 1936-12-01 00:00:00 NR 13.6138 136.946 main 1241 1177 __________P___ -1 13.6138 136.946 7 11 272
1936335N14139 1936 66 WP MM NOT_NAMED 1936-12-01 03:00:00 NR 13.6407 136.333 main 1177 1117 __________P___ -1 13.6407 136.333 7 13 273
1936335N14139 1936 66 WP MM NOT_NAMED 1936-12-01 06:00:00 NR 13.6693 135.653 main 1117 1032 __________P___ -1 13.6693 135.653 7 14 272
1936335N14139 1936 66 WP MM NOT_NAMED 1936-12-01 09:00:00 NR 13.6938 134.939 main 1032 1011 __________P___ -1 13.6938 134.939 7 14 272
1936335N14139 1936 66 WP MM NOT_NAMED 1936-12-01 10:00:00 NR 13.7000 134.700 main 1011 968 __________O___ -1 13.7000 134.700 7 13 271
1936335N14139 1936 66 WP MM NOT_NAMED 1936-12-01 12:00:00 NR 13.7051 134.260 main 968 894 __________P___ -1 13.7051 134.260 7 13 270
1936335N14139 1936 66 WP MM NOT_NAMED 1936-12-01 15:00:00 NR 13.7067 133.589 main 894 819 __________P___ -1 13.7067 133.589 7 13 270
1936335N14139 1936 66 WP MM NOT_NAMED 1936-12-01 18:00:00 NR 13.7042 132.891 main 819 745 __________P___ -1 13.7042 132.891 7 14 270
1936335N14139 1936 66 WP MM NOT_NAMED 1936-12-01 21:00:00 NR 13.7008 132.156 main 745 713 __________P___ -1 13.7008 132.156 7 14 270
1936335N14139 1936 66 WP MM NOT_NAMED 1936-12-01 22:00:00 NR 13.7000 131.900 main 713 661 __________O___ -1 13.7000 131.900 7 15 270
1936335N14139 1936 66 WP MM NOT_NAMED 1936-12-02 00:00:00 NR 13.6998 131.370 main 661 567 __________P___ -1 13.6998 131.370 7 16 270
1936335N14139 1936 66 WP MM NOT_NAMED 1936-12-02 03:00:00 NR 13.6996 130.538 main 567 485 __________P___ -1 13.6996 130.538 7 17 270
1936335N14139 1936 66 WP MM NOT_NAMED 1936-12-02 06:00:00 NR 13.6995 129.674 main 485 395 __________P___ -1 13.6995 129.674 7 17 270
1936335N14139 1936 66 WP MM NOT_NAMED 1936-12-02 09:00:00 NR 13.6998 128.794 main 395 366 __________P___ -1 13.6998 128.794 7 17 270
1936335N14139 1936 66 WP MM NOT_NAMED 1936-12-02 10:00:00 NR 13.7000 128.500 main 366 309 __________O___ -1 13.7000 128.500 7 18 270
1936335N14139 1936 66 WP MM NOT_NAMED 1936-12-02 12:00:00 NR 13.6953 127.870 main 309 226 __________P___ -1 13.6953 127.870 7 18 270
1936335N14139 1936 66 WP MM NOT_NAMED 1936-12-02 15:00:00 NR 13.6881 126.918 main 226 159 __________P___ -1 13.6881 126.918 7 18 270
1936335N14139 1936 66 WP MM NOT_NAMED 1936-12-02 18:00:00 NR 13.6855 126.014 main 159 86 __________P___ -1 13.6855 126.014 7 16 270
1936335N14139 1936 66 WP MM NOT_NAMED 1936-12-02 21:00:00 NR 13.6937 125.226 main 86 64 __________P___ -1 13.6937 125.226 7 15 271
1936335N14139 1936 66 WP MM NOT_NAMED 1936-12-02 22:00:00 NR 13.7000 125.000 main 64 21 __________O___ -1 13.7000 125.000 3 11 272
1936335N14139 1936 66 WP MM NOT_NAMED 1936-12-03 00:00:00 NR 13.7178 124.641 main 21 0 __________P___ -1 13.7178 124.641 3 9 274
1936335N14139 1936 66 WP MM NOT_NAMED 1936-12-03 03:00:00 NR 13.7584 124.229 main 0 0 __________P___ -1 13.7584 124.229 3 7 278
1936335N14139 1936 66 WP MM NOT_NAMED 1936-12-03 06:00:00 NR 13.8127 123.907 main 10 0 __________P___ -1 13.8127 123.907 3 6 281
1936335N14139 1936 66 WP MM NOT_NAMED 1936-12-03 09:00:00 NR 13.8770 123.607 main 0 0 __________P___ -1 13.8770 123.607 3 6 282
1936335N14139 1936 66 WP MM NOT_NAMED 1936-12-03 10:00:00 NR 13.9000 123.500 main 0 0 __________O___ -1 13.9000 123.500 4 8 280
1936335N14139 1936 66 WP MM NOT_NAMED 1936-12-03 12:00:00 NR 13.9417 123.220 main 10 0 __________P___ -1 13.9417 123.220 4 8 279
1936335N14139 1936 66 WP MM NOT_NAMED 1936-12-03 15:00:00 NR 14.0105 122.788 main 0 0 __________P___ -1 14.0105 122.788 4 9 280
1936335N14139 1936 66 WP MM NOT_NAMED 1936-12-03 18:00:00 NR 14.0867 122.354 main 0 0 __________P___ -1 14.0867 122.354 4 8 281
1936335N14139 1936 66 WP MM NOT_NAMED 1936-12-03 21:00:00 NR 14.1704 121.934 main 15 10 __________P___ -1 14.1704 121.934 4 8 282
1936335N14139 1936 66 WP MM NOT_NAMED 1936-12-03 22:00:00 NR 14.2000 121.800 main 10 0 __________O___ -1 14.2000 121.800 4 8 282
1936335N14139 1936 66 WP MM NOT_NAMED 1936-12-04 00:00:00 NR 14.2528 121.549 main 0 0 __________P___ -1 14.2528 121.549 4 7 283
1936335N14139 1936 66 WP MM NOT_NAMED 1936-12-04 03:00:00 NR 14.3384 121.192 main 0 0 __________P___ -1 14.3384 121.192 4 7 285
1936335N14139 1936 66 WP MM NOT_NAMED 1936-12-04 06:00:00 NR 14.4372 120.850 main 0 0 __________P___ -1 14.4372 120.850 4 7 288
1936335N14139 1936 66 WP MM NOT_NAMED 1936-12-04 09:00:00 NR 14.5553 120.513 main 0 0 __________P___ -1 14.5553 120.513 4 7 291
1936335N14139 1936 66 WP MM NOT_NAMED 1936-12-04 10:00:00 NR 14.6000 120.400 main 0 0 __________O___ -1 14.6000 120.400 4 7 286
1936335N14139 1936 66 WP MM NOT_NAMED 1936-12-04 12:00:00 NR 14.6550 120.148 main 10 10 __________P___ -1 14.6550 120.148 4 8 284
1936335N14139 1936 66 WP MM NOT_NAMED 1936-12-04 15:00:00 NR 14.7555 119.770 main 32 43 __________P___ -1 14.7555 119.770 4 8 290
1936335N14139 1936 66 WP MM NOT_NAMED 1936-12-04 18:00:00 NR 14.9163 119.411 main 75 69 __________P___ -1 14.9163 119.411 4 8 303
1936335N14139 1936 66 WP MM NOT_NAMED 1936-12-04 21:00:00 NR 15.1811 119.093 main 88 88 __________P___ -1 15.1811 119.093 4 8 314
1936335N14139 1936 66 WP MM NOT_NAMED 1936-12-04 22:00:00 NR 15.3000 119.000 main 97 96 __________O___ -1 15.3000 119.000 4 11 329
1936335N14139 1936 66 WP MM NOT_NAMED 1936-12-05 00:00:00 NR 15.6473 118.800 main 106 101 __________P___ -1 15.6473 118.800 4 13 336
1936335N14139 1936 66 WP MM NOT_NAMED 1936-12-05 03:00:00 NR 16.2767 118.542 main 132 132 __________P___ -1 16.2767 118.542 4 14 342
1936335N14139 1936 66 WP MM NOT_NAMED 1936-12-05 06:00:00 NR 16.9417 118.362 main 163 168 __________P___ -1 16.9417 118.362 4 13 349
1936335N14139 1936 66 WP MM NOT_NAMED 1936-12-05 09:00:00 NR 17.5360 118.293 main 208 212 __________P___ -1 17.5360 118.293 4 11 356
1936335N14139 1936 66 WP MM NOT_NAMED 1936-12-05 10:00:00 NR 17.7000 118.300 main 212 204 __________O___ -1 17.7000 118.300 4 9 8
1936335N14139 1936 66 WP MM NOT_NAMED 1936-12-05 12:00:00 NR 17.9612 118.362 main 206 192 __________P___ -1 17.9612 118.362 4 7 26
1936335N14139 1936 66 WP MM NOT_NAMED 1936-12-05 15:00:00 NR 18.2103 118.559 main 192 176 __________P___ -1 18.2103 118.559 4 6 51
1936335N14139 1936 66 WP MM NOT_NAMED 1936-12-05 18:00:00 NR 18.3353 118.845 main 176 141 __________P___ -1 18.3353 118.845 4 6 73
1936335N14139 1936 66 WP MM NOT_NAMED 1936-12-05 21:00:00 NR 18.3888 119.183 main 141 131 __________P___ -1 18.3888 119.183 4 7 81
1936335N14139 1936 66 WP MM NOT_NAMED 1936-12-05 22:00:00 NR 18.4000 119.300 main 131 __________O___ -1 18.4000 119.300 4 7 84

デジタル台風データ・検索

IBTrACS Databaseについて

本データベースは、米国NOAAが公開する1842年以降の世界の熱帯低気圧のベストトラックデータアーカイブInternational Best Track Archive for Climate Stewardship (IBTrACS)を、ウェブで閲覧しやすい形式に変換したものです。

最終更新日:2021-10-08